createdAt,value
2018-05-10T00:01:11.969Z,9.13
2018-05-10T00:03:40.240Z,8.30
2018-05-10T00:06:08.548Z,9.30
2018-05-10T00:08:37.526Z,9.07
2018-05-10T00:11:05.843Z,9.33
2018-05-10T00:13:34.119Z,9.43
2018-05-10T00:16:02.389Z,8.93
2018-05-10T00:18:30.700Z,9.17
2018-05-10T00:20:59.297Z,9.40
2018-05-10T00:23:27.582Z,9.20
2018-05-10T00:25:56.298Z,9.37
2018-05-10T00:28:24.582Z,9.13
2018-05-10T00:30:52.860Z,8.93
2018-05-10T00:33:21.394Z,10.00
2018-05-10T00:35:49.678Z,9.33
2018-05-10T00:38:17.961Z,9.40
2018-05-10T00:40:46.676Z,9.27
2018-05-10T00:43:14.943Z,9.43
2018-05-10T00:45:43.899Z,9.20
2018-05-10T00:48:12.239Z,9.90
2018-05-10T00:50:40.513Z,9.33
2018-05-10T00:53:08.819Z,9.20
2018-05-10T00:55:37.216Z,9.40
2018-05-10T00:58:05.493Z,8.53
2018-05-10T01:00:33.778Z,9.70
2018-05-10T01:03:02.535Z,8.83
2018-05-10T01:05:30.850Z,9.30
2018-05-10T01:07:59.153Z,8.40
2018-05-10T01:10:27.421Z,9.20
2018-05-10T01:12:55.722Z,9.17
2018-05-10T01:15:24.019Z,9.53
2018-05-10T01:17:52.297Z,9.57
2018-05-10T01:20:20.607Z,9.07
2018-05-10T01:22:49.278Z,8.60
2018-05-10T01:25:17.561Z,9.00
2018-05-10T01:27:45.894Z,9.97
2018-05-10T01:30:14.171Z,8.77
2018-05-10T01:32:42.448Z,9.90
2018-05-10T01:35:22.646Z,8.40
2018-05-10T01:37:51.356Z,10.00
2018-05-10T01:40:19.699Z,9.77
2018-05-10T01:42:47.968Z,9.27
2018-05-10T01:45:16.250Z,10.10
2018-05-10T01:47:44.566Z,9.63
2018-05-10T01:50:12.836Z,9.50
2018-05-10T01:52:41.164Z,8.50
2018-05-10T01:55:09.476Z,9.43
2018-05-10T01:57:38.149Z,8.80
2018-05-10T02:00:06.486Z,9.13
2018-05-10T02:02:34.756Z,8.37
2018-05-10T02:05:03.158Z,9.17
2018-05-10T02:07:31.672Z,8.90
2018-05-10T02:09:59.936Z,9.10
2018-05-10T02:12:28.217Z,9.77
2018-05-10T02:14:56.520Z,9.83
2018-05-10T02:17:24.795Z,9.27
2018-05-10T02:19:53.081Z,10.00
2018-05-10T02:22:21.374Z,9.13
2018-05-10T02:24:49.660Z,10.17
2018-05-10T02:27:18.178Z,9.60
2018-05-10T02:29:46.505Z,9.53
2018-05-10T02:32:15.025Z,9.37
2018-05-10T02:34:43.306Z,9.67
2018-05-10T02:37:11.664Z,9.50
2018-05-10T02:39:39.957Z,9.10
2018-05-10T02:42:08.323Z,8.93
2018-05-10T02:44:36.629Z,9.20
2018-05-10T02:47:04.902Z,9.10
2018-05-10T02:49:33.213Z,8.40
2018-05-10T02:52:01.525Z,8.90
2018-05-10T02:54:29.806Z,9.67
2018-05-10T02:56:58.075Z,8.40
2018-05-10T02:59:26.363Z,8.63
2018-05-10T03:01:54.870Z,8.47
2018-05-10T03:04:23.565Z,8.90
2018-05-10T03:06:52.265Z,8.67
2018-05-10T03:09:20.585Z,8.50
2018-05-10T03:11:48.854Z,8.77
2018-05-10T03:14:17.160Z,8.67
2018-05-10T03:16:45.438Z,9.10
2018-05-10T03:19:13.709Z,8.70
2018-05-10T03:21:42.014Z,9.07
2018-05-10T03:24:10.698Z,8.80
2018-05-10T03:26:39.364Z,8.47
2018-05-10T03:29:07.834Z,8.40
2018-05-10T03:31:36.533Z,8.43
2018-05-10T03:34:05.385Z,8.27
2018-05-10T03:36:33.701Z,7.87
2018-05-10T03:39:02.406Z,8.40
2018-05-10T03:41:31.076Z,8.30
2018-05-10T03:43:59.745Z,8.27
2018-05-10T03:46:28.112Z,8.70
2018-05-10T03:48:57.047Z,8.40
2018-05-10T03:51:25.739Z,8.87
2018-05-10T03:53:55.458Z,7.80
2018-05-10T03:56:23.853Z,7.87
2018-05-10T03:58:52.573Z,8.00
2018-05-10T04:01:20.950Z,8.47
2018-05-10T04:04:01.154Z,8.57
2018-05-10T04:06:41.189Z,7.90
2018-05-10T04:09:21.678Z,8.27
2018-05-10T04:11:49.954Z,8.40
2018-05-10T04:14:18.230Z,8.20
2018-05-10T04:16:46.549Z,8.17
2018-05-10T04:19:14.818Z,8.00
2018-05-10T04:21:43.103Z,8.77
2018-05-10T04:24:11.433Z,8.73
2018-05-10T04:26:39.962Z,8.87
2018-05-10T04:29:09.177Z,8.23
2018-05-10T04:31:38.569Z,8.63
2018-05-10T04:34:06.917Z,8.50
2018-05-10T04:36:36.112Z,8.93
2018-05-10T04:39:04.729Z,8.53
2018-05-10T04:41:33.009Z,8.63
2018-05-10T04:44:01.310Z,8.33
2018-05-10T04:46:30.021Z,7.70
2018-05-10T04:48:59.096Z,8.40
2018-05-10T04:51:27.588Z,9.23
2018-05-10T04:53:55.924Z,8.70
2018-05-10T04:56:24.209Z,8.43
2018-05-10T04:58:52.877Z,8.90
2018-05-10T05:01:21.229Z,8.70
2018-05-10T05:03:49.659Z,8.67
2018-05-10T05:06:18.372Z,9.30
2018-05-10T05:08:46.757Z,7.77
2018-05-10T05:11:14.978Z,8.90
2018-05-10T05:13:43.280Z,8.53
2018-05-10T05:16:11.978Z,8.50
2018-05-10T05:18:40.259Z,8.73
2018-05-10T05:21:08.533Z,8.43
2018-05-10T05:23:37.656Z,8.33
2018-05-10T05:26:06.090Z,9.40
2018-05-10T05:28:34.429Z,9.33
2018-05-10T05:31:02.717Z,8.90
2018-05-10T05:33:30.997Z,9.00
2018-05-10T05:35:59.275Z,8.47
2018-05-10T05:38:27.582Z,8.57
2018-05-10T05:40:55.865Z,8.33
2018-05-10T05:43:24.177Z,8.77
2018-05-10T05:45:52.787Z,8.53
2018-05-10T05:48:21.094Z,8.53
2018-05-10T05:50:49.417Z,8.77
2018-05-10T05:53:18.025Z,9.50
2018-05-10T05:55:46.301Z,9.10
2018-05-10T05:58:14.578Z,8.80
2018-05-10T06:00:42.867Z,8.87
2018-05-10T06:03:11.558Z,9.70
2018-05-10T06:05:40.531Z,8.93
2018-05-10T06:08:08.878Z,8.73
2018-05-10T06:10:37.157Z,9.20
2018-05-10T06:13:05.669Z,8.87
2018-05-10T06:15:34.095Z,8.80
2018-05-10T06:18:02.319Z,9.43
2018-05-10T06:20:30.592Z,9.70
2018-05-10T06:22:58.915Z,9.80
2018-05-10T06:25:27.193Z,10.70
2018-05-10T06:27:55.487Z,10.17
2018-05-10T06:30:24.195Z,10.97
2018-05-10T06:32:52.448Z,10.77
2018-05-10T06:35:20.733Z,9.83
2018-05-10T06:37:49.112Z,10.73
2018-05-10T06:40:17.458Z,9.20
2018-05-10T06:42:45.736Z,10.40
2018-05-10T06:45:14.054Z,9.77
2018-05-10T06:47:42.342Z,8.97
2018-05-10T06:50:10.647Z,8.60
2018-05-10T06:52:39.456Z,9.77
2018-05-10T06:55:08.904Z,9.73
2018-05-10T06:57:37.502Z,9.00
2018-05-10T07:00:05.926Z,9.50
2018-05-10T07:02:34.204Z,9.27
2018-05-10T07:05:02.476Z,9.60
2018-05-10T07:07:30.776Z,9.53
2018-05-10T07:09:59.329Z,8.87
2018-05-10T07:12:27.366Z,9.10
2018-05-10T07:14:55.950Z,9.80
2018-05-10T07:17:24.213Z,10.10
2018-05-10T07:19:52.493Z,8.90
2018-05-10T07:22:20.799Z,8.87
2018-05-10T07:24:49.125Z,8.40
2018-05-10T07:27:17.432Z,9.83
2018-05-10T07:29:45.739Z,9.87
2018-05-10T07:32:14.022Z,9.50
2018-05-10T07:34:42.292Z,9.63
2018-05-10T07:37:11.066Z,7.60
2018-05-10T07:39:40.040Z,8.37
2018-05-10T07:42:08.347Z,8.63
2018-05-10T07:44:37.039Z,7.23
2018-05-10T07:47:05.582Z,7.83
2018-05-10T07:49:34.179Z,8.00
2018-05-10T07:52:02.533Z,8.60
2018-05-10T07:54:30.809Z,8.90
2018-05-10T07:56:59.100Z,7.90
2018-05-10T07:59:27.411Z,8.20
2018-05-10T08:01:55.695Z,8.53
2018-05-10T08:04:23.980Z,8.00
2018-05-10T08:06:53.785Z,7.60
2018-05-10T08:09:22.117Z,8.00
2018-05-10T08:11:51.177Z,7.67
2018-05-10T08:14:19.469Z,7.30
2018-05-10T08:16:47.755Z,7.50
2018-05-10T08:19:16.806Z,7.07
2018-05-10T08:21:45.163Z,7.00
2018-05-10T08:24:13.848Z,7.40
2018-05-10T08:26:42.141Z,6.90
2018-05-10T08:29:10.434Z,6.57
2018-05-10T08:31:39.171Z,7.47
2018-05-10T08:34:07.524Z,7.37
2018-05-10T08:36:36.037Z,7.23
2018-05-10T08:39:04.163Z,7.50
2018-05-10T08:41:32.437Z,6.90
2018-05-10T08:44:00.762Z,6.87
2018-05-10T08:46:29.672Z,6.10
2018-05-10T08:48:57.968Z,6.60
2018-05-10T08:51:26.319Z,5.80
2018-05-10T08:53:54.652Z,6.20
2018-05-10T08:56:22.936Z,5.67
2018-05-10T08:58:51.241Z,6.43
2018-05-10T09:01:19.918Z,6.40
2018-05-10T09:03:48.231Z,5.57
2018-05-10T09:06:16.528Z,5.40
2018-05-10T09:08:44.820Z,6.20
2018-05-10T09:11:13.141Z,5.37
2018-05-10T09:13:41.932Z,5.43
2018-05-10T09:16:10.607Z,5.77
2018-05-10T09:18:38.897Z,5.77
2018-05-10T09:21:07.679Z,5.23
2018-05-10T09:23:36.641Z,5.37
2018-05-10T09:26:05.065Z,5.60
2018-05-10T09:28:33.850Z,4.87
2018-05-10T09:31:02.820Z,5.77
2018-05-10T09:33:31.491Z,5.50
2018-05-10T09:36:00.313Z,5.30
2018-05-10T09:38:28.768Z,6.30
2018-05-10T09:40:57.038Z,6.20
2018-05-10T09:43:25.332Z,6.03
2018-05-10T09:45:54.001Z,5.80
2018-05-10T09:48:22.273Z,6.10
2018-05-10T09:50:50.792Z,6.30
2018-05-10T09:53:19.137Z,6.10
2018-05-10T09:55:47.409Z,6.63
2018-05-10T09:58:15.723Z,5.87
2018-05-10T10:00:44.007Z,5.90
2018-05-10T10:03:12.368Z,6.30
2018-05-10T10:05:40.721Z,5.93
2018-05-10T10:08:09.009Z,6.30
2018-05-10T10:10:38.158Z,5.50
2018-05-10T10:13:07.697Z,5.77
2018-05-10T10:15:36.483Z,5.70
2018-05-10T10:18:05.421Z,5.33
2018-05-10T10:20:33.779Z,5.30
2018-05-10T10:23:02.068Z,5.80
2018-05-10T10:25:30.505Z,4.90
2018-05-10T10:27:59.698Z,5.53
2018-05-10T10:30:27.977Z,5.70
2018-05-10T10:32:58.003Z,5.73
2018-05-10T10:35:26.639Z,5.80
2018-05-10T10:37:55.169Z,5.70
2018-05-10T10:40:23.461Z,5.60
2018-05-10T10:42:52.294Z,5.30
2018-05-10T10:45:20.531Z,5.13
2018-05-10T10:47:49.238Z,5.60
2018-05-10T10:50:17.546Z,5.50
2018-05-10T10:52:46.749Z,5.30
2018-05-10T10:55:15.073Z,5.50
2018-05-10T10:57:43.419Z,5.20
2018-05-10T11:00:12.161Z,5.07
2018-05-10T11:02:40.437Z,6.27
2018-05-10T11:05:08.757Z,5.50
2018-05-10T11:07:37.635Z,5.33
2018-05-10T11:10:06.140Z,6.17
2018-05-10T11:12:34.966Z,6.20
2018-05-10T11:15:03.285Z,5.37
2018-05-10T11:17:31.541Z,5.97
2018-05-10T11:20:01.074Z,5.40
2018-05-10T11:22:30.014Z,5.67
2018-05-10T11:24:58.258Z,5.63
2018-05-10T11:27:26.615Z,5.80
2018-05-10T11:29:54.896Z,5.97
2018-05-10T11:32:23.178Z,6.10
2018-05-10T11:34:51.475Z,5.93
2018-05-10T11:37:20.148Z,5.90
2018-05-10T11:39:48.877Z,6.33
2018-05-10T11:42:17.186Z,6.53
2018-05-10T11:44:45.454Z,6.40
2018-05-10T11:47:13.745Z,6.00
2018-05-10T11:49:42.046Z,5.97
2018-05-10T11:52:10.706Z,6.40
2018-05-10T11:54:39.202Z,6.33
2018-05-10T11:57:07.493Z,6.13
2018-05-10T11:59:36.160Z,5.73
2018-05-10T12:02:04.445Z,5.97
2018-05-10T12:04:32.902Z,6.20
2018-05-10T12:07:01.253Z,5.83
2018-05-10T12:09:29.860Z,6.50
2018-05-10T12:11:58.195Z,6.27
2018-05-10T12:14:26.489Z,5.80
2018-05-10T12:16:54.774Z,5.60
2018-05-10T12:19:23.081Z,5.83
2018-05-10T12:21:51.356Z,6.47
2018-05-10T12:24:19.645Z,6.03
2018-05-10T12:26:47.951Z,7.10
2018-05-10T12:29:16.228Z,6.17
2018-05-10T12:31:44.598Z,6.30
2018-05-10T12:34:12.812Z,5.87
2018-05-10T12:36:41.102Z,6.20
2018-05-10T12:39:09.365Z,6.17
2018-05-10T12:41:37.673Z,5.83
2018-05-10T12:44:05.959Z,5.57
2018-05-10T12:46:34.248Z,5.67
2018-05-10T12:49:02.960Z,6.20
2018-05-10T12:51:31.409Z,6.13
2018-05-10T12:53:59.951Z,6.17
2018-05-10T12:56:29.027Z,5.60
2018-05-10T12:58:57.305Z,6.73
2018-05-10T13:01:25.631Z,6.00
2018-05-10T13:03:53.976Z,6.00
2018-05-10T13:06:22.309Z,6.67
2018-05-10T13:08:50.994Z,6.30
2018-05-10T13:11:19.709Z,5.70
2018-05-10T13:13:48.219Z,6.03
2018-05-10T13:16:16.710Z,5.70
2018-05-10T13:18:44.879Z,6.33
2018-05-10T13:21:13.152Z,6.30
2018-05-10T13:23:41.442Z,5.43
2018-05-10T13:26:09.798Z,5.77
2018-05-10T13:28:38.142Z,5.63
2018-05-10T13:31:06.676Z,6.13
2018-05-10T13:33:34.968Z,5.57
2018-05-10T13:36:04.071Z,5.00
2018-05-10T13:38:32.620Z,5.27
2018-05-10T13:41:00.925Z,5.20
2018-05-10T13:43:29.617Z,5.87
2018-05-10T13:45:57.905Z,5.07
2018-05-10T13:48:26.803Z,5.77
2018-05-10T13:50:55.556Z,5.33
2018-05-10T13:53:23.827Z,5.67
2018-05-10T13:55:52.328Z,5.27
2018-05-10T13:58:21.006Z,5.13
2018-05-10T14:00:49.287Z,5.20
2018-05-10T14:03:17.980Z,4.97
2018-05-10T14:05:47.239Z,5.17
2018-05-10T14:08:15.633Z,5.67
2018-05-10T14:10:44.032Z,5.13
2018-05-10T14:13:12.996Z,5.27
2018-05-10T14:15:41.264Z,5.53
2018-05-10T14:18:09.579Z,5.47
2018-05-10T14:20:38.244Z,5.07
2018-05-10T14:23:06.517Z,4.60
2018-05-10T14:25:34.822Z,4.50
2018-05-10T14:28:03.502Z,4.70
2018-05-10T14:30:32.191Z,5.20
2018-05-10T14:33:00.908Z,5.10
2018-05-10T14:35:29.174Z,5.40
2018-05-10T14:37:57.461Z,5.13
2018-05-10T14:40:25.762Z,5.33
2018-05-10T14:42:54.040Z,5.10
2018-05-10T14:45:22.310Z,5.27
2018-05-10T14:47:50.610Z,5.47
2018-05-10T14:50:18.877Z,5.40
2018-05-10T14:52:47.308Z,5.07
2018-05-10T14:55:15.727Z,5.37
2018-05-10T14:57:44.101Z,4.83
2018-05-10T15:00:13.736Z,5.23
2018-05-10T15:02:42.288Z,5.23
2018-05-10T15:05:10.560Z,4.50
2018-05-10T15:07:39.052Z,4.90
2018-05-10T15:10:07.372Z,4.93
2018-05-10T15:12:36.037Z,5.50
2018-05-10T15:15:04.343Z,5.37
2018-05-10T15:17:32.701Z,4.93
2018-05-10T15:20:01.369Z,5.77
2018-05-10T15:22:29.756Z,5.90
2018-05-10T15:24:58.076Z,5.50
2018-05-10T15:27:26.383Z,5.40
2018-05-10T15:29:54.769Z,5.30
2018-05-10T15:32:23.068Z,5.17
2018-05-10T15:34:51.375Z,5.40
2018-05-10T15:37:19.654Z,5.13
2018-05-10T15:39:48.651Z,5.47
2018-05-10T15:42:16.938Z,6.10
2018-05-10T15:44:45.213Z,5.40
2018-05-10T15:47:13.611Z,5.80
2018-05-10T15:49:41.932Z,6.23
2018-05-10T15:52:10.230Z,6.27
2018-05-10T15:54:38.645Z,5.10
2018-05-10T15:57:07.251Z,4.53
2018-05-10T15:59:35.835Z,4.30
2018-05-10T16:02:04.569Z,4.30
2018-05-10T16:04:32.849Z,4.10
2018-05-10T16:07:01.142Z,4.30
2018-05-10T16:09:29.476Z,4.27
2018-05-10T16:11:58.462Z,4.30
2018-05-10T16:14:27.139Z,5.00
2018-05-10T16:16:55.570Z,4.43
2018-05-10T16:19:24.071Z,4.57
2018-05-10T16:21:52.428Z,4.63
2018-05-10T16:24:20.727Z,4.53
2018-05-10T16:26:50.420Z,4.90
2018-05-10T16:29:18.713Z,5.30
2018-05-10T16:31:47.115Z,5.43
2018-05-10T16:34:15.818Z,5.87
2018-05-10T16:36:44.498Z,6.20
2018-05-10T16:39:13.194Z,5.60
2018-05-10T16:41:41.870Z,6.40
2018-05-10T16:44:10.542Z,5.87
2018-05-10T16:46:38.852Z,5.73
2018-05-10T16:49:07.116Z,6.10
2018-05-10T16:51:35.790Z,5.57
2018-05-10T16:54:04.077Z,5.37
2018-05-10T16:56:33.049Z,5.77
2018-05-10T16:59:01.340Z,6.07
2018-05-10T17:01:30.047Z,5.63
2018-05-10T17:03:58.376Z,5.60
2018-05-10T17:06:27.681Z,5.60
2018-05-10T17:08:56.378Z,5.20
2018-05-10T17:11:24.736Z,6.00
2018-05-10T17:13:53.241Z,5.80
2018-05-10T17:16:21.947Z,5.27
2018-05-10T17:18:50.493Z,5.57
2018-05-10T17:21:18.841Z,5.53
2018-05-10T17:23:47.150Z,5.73
2018-05-10T17:26:15.823Z,5.70
2018-05-10T17:28:44.085Z,5.70
2018-05-10T17:31:12.388Z,5.57
2018-05-10T17:33:40.656Z,6.37
2018-05-10T17:36:09.488Z,7.47
2018-05-10T17:38:37.864Z,6.50
2018-05-10T17:41:06.886Z,5.87
2018-05-10T17:43:35.505Z,6.60
2018-05-10T17:46:04.165Z,6.17
2018-05-10T17:48:33.425Z,5.40
2018-05-10T17:51:02.280Z,5.73
2018-05-10T17:53:31.311Z,5.13
2018-05-10T17:55:59.813Z,5.30
2018-05-10T17:58:28.455Z,5.63
2018-05-10T18:00:56.956Z,5.37
2018-05-10T18:03:25.477Z,5.40
2018-05-10T18:05:54.536Z,4.80
2018-05-10T18:08:24.141Z,5.00
2018-05-10T18:10:52.816Z,5.60
2018-05-10T18:13:21.315Z,5.70
2018-05-10T18:15:50.143Z,6.17
2018-05-10T18:18:18.410Z,6.20
2018-05-10T18:20:46.686Z,6.40
2018-05-10T18:23:25.538Z,6.50
2018-05-10T18:25:58.018Z,6.77
2018-05-10T18:28:27.212Z,6.80
2018-05-10T18:30:56.310Z,6.70
2018-05-10T18:33:25.951Z,6.70
2018-05-10T18:35:55.286Z,7.03
2018-05-10T18:38:23.614Z,6.70
2018-05-10T18:40:52.377Z,6.83
2018-05-10T18:43:21.593Z,7.07
2018-05-10T18:45:50.250Z,6.90
2018-05-10T18:48:18.527Z,6.67
2018-05-10T18:50:47.008Z,8.47
2018-05-10T18:53:16.359Z,7.87
2018-05-10T18:55:44.681Z,8.13
2018-05-10T18:58:13.056Z,7.70
2018-05-10T19:00:41.335Z,7.40
2018-05-10T19:03:09.615Z,7.03
2018-05-10T19:05:37.890Z,7.00
2018-05-10T19:08:06.168Z,7.10
2018-05-10T19:10:34.469Z,6.53
2018-05-10T19:13:02.794Z,7.70
2018-05-10T19:15:31.219Z,7.00
2018-05-10T19:17:59.448Z,9.00
2018-05-10T19:20:27.792Z,10.17
2018-05-10T19:22:56.470Z,8.93
2018-05-10T19:25:25.154Z,13.00
2018-05-10T19:27:54.299Z,10.37
2018-05-10T19:30:22.621Z,10.53
2018-05-10T19:32:50.916Z,9.13
2018-05-10T19:35:19.686Z,8.53
2018-05-10T19:37:48.368Z,9.00
2018-05-10T19:40:16.690Z,7.63
2018-05-10T19:42:45.320Z,9.83
2018-05-10T19:45:13.633Z,11.43
2018-05-10T19:47:41.887Z,11.60
2018-05-10T19:50:10.238Z,8.07
2018-05-10T19:52:38.532Z,8.63
2018-05-10T19:55:06.925Z,9.30
2018-05-10T19:57:35.931Z,10.70
2018-05-10T20:00:04.808Z,12.10
2018-05-10T20:02:33.562Z,10.70
2018-05-10T20:05:01.874Z,11.30
2018-05-10T20:07:30.627Z,11.10
2018-05-10T20:09:58.940Z,10.40
2018-05-10T20:12:27.647Z,9.67
2018-05-10T20:14:55.933Z,6.83
2018-05-10T20:17:24.197Z,9.60
2018-05-10T20:19:52.521Z,8.57
2018-05-10T20:22:20.797Z,10.00
2018-05-10T20:24:50.215Z,10.20
2018-05-10T20:27:18.528Z,9.40
2018-05-10T20:29:46.806Z,6.60
2018-05-10T20:32:15.094Z,7.30
2018-05-10T20:34:43.424Z,9.33
2018-05-10T20:37:11.724Z,8.60
2018-05-10T20:39:40.685Z,9.63
2018-05-10T20:42:10.308Z,9.57
2018-05-10T20:44:39.406Z,9.53
2018-05-10T20:47:08.149Z,6.50
2018-05-10T20:49:36.480Z,6.00
2018-05-10T20:52:04.809Z,6.00
2018-05-10T20:54:33.212Z,6.43
2018-05-10T20:57:01.493Z,6.80
2018-05-10T20:59:30.725Z,5.90
2018-05-10T21:02:00.084Z,5.93
2018-05-10T21:04:28.701Z,5.90
2018-05-10T21:06:57.602Z,7.00
2018-05-10T21:09:26.287Z,6.90
2018-05-10T21:11:55.003Z,8.90
2018-05-10T21:14:23.504Z,6.27
2018-05-10T21:16:52.204Z,6.70
2018-05-10T21:19:20.753Z,7.00
2018-05-10T21:21:49.334Z,7.80
2018-05-10T21:24:17.746Z,6.90
2018-05-10T21:26:46.453Z,7.00
2018-05-10T21:29:14.775Z,5.83
2018-05-10T21:31:43.085Z,6.67
2018-05-10T21:34:11.357Z,7.07
2018-05-10T21:36:39.688Z,6.60
2018-05-10T21:39:08.023Z,7.33
2018-05-10T21:41:36.345Z,6.73
2018-05-10T21:44:04.657Z,7.07
2018-05-10T21:46:33.032Z,7.10
2018-05-10T21:49:01.301Z,8.03
2018-05-10T21:51:29.583Z,7.97
2018-05-10T21:53:57.956Z,7.33
2018-05-10T21:56:26.224Z,8.07
2018-05-10T21:58:54.488Z,8.40
2018-05-10T22:01:23.550Z,9.13
2018-05-10T22:03:52.620Z,8.73
2018-05-10T22:06:20.927Z,8.50
2018-05-10T22:08:49.735Z,8.77
2018-05-10T22:11:17.961Z,9.00
2018-05-10T22:13:46.247Z,9.27
2018-05-10T22:16:14.551Z,8.80
2018-05-10T22:18:43.305Z,8.47
2018-05-10T22:21:11.935Z,7.57
2018-05-10T22:23:40.266Z,7.00
2018-05-10T22:26:08.551Z,6.73
2018-05-10T22:28:36.823Z,6.73
2018-05-10T22:31:05.101Z,8.00
2018-05-10T22:33:33.459Z,7.17
2018-05-10T22:36:01.746Z,8.70
2018-05-10T22:38:30.164Z,6.77
2018-05-10T22:40:58.456Z,6.90
2018-05-10T22:43:26.724Z,6.93
2018-05-10T22:45:54.997Z,6.03
2018-05-10T22:48:23.266Z,6.10
2018-05-10T22:50:51.931Z,6.40
2018-05-10T22:53:20.224Z,6.60
2018-05-10T22:55:48.897Z,7.33
2018-05-10T22:58:17.570Z,9.50
2018-05-10T23:00:46.301Z,7.70
2018-05-10T23:03:14.783Z,7.97
2018-05-10T23:05:43.059Z,7.90
2018-05-10T23:08:11.463Z,6.47
2018-05-10T23:10:39.737Z,6.63
2018-05-10T23:13:08.000Z,8.63
2018-05-10T23:15:36.306Z,6.43
2018-05-10T23:18:04.592Z,7.10
2018-05-10T23:20:32.867Z,7.90
2018-05-10T23:23:01.190Z,11.37
2018-05-10T23:25:29.466Z,8.93
2018-05-10T23:27:57.737Z,6.50
2018-05-10T23:30:26.045Z,6.60
2018-05-10T23:32:54.322Z,7.67
2018-05-10T23:35:22.600Z,6.83
2018-05-10T23:37:50.886Z,7.30
2018-05-10T23:40:20.024Z,7.80
2018-05-10T23:42:48.685Z,6.30
2018-05-10T23:45:17.044Z,8.27
2018-05-10T23:47:45.312Z,6.80
2018-05-10T23:50:13.592Z,7.60
2018-05-10T23:52:41.888Z,6.73
2018-05-10T23:55:10.174Z,11.20
2018-05-10T23:57:38.443Z,8.50
